createdAt,value
2023-04-15T00:01:19.201Z,5.18
2023-04-15T00:03:48.359Z,5.15
2023-04-15T00:06:17.436Z,5.12
2023-04-15T00:08:46.156Z,5.10
2023-04-15T00:11:15.053Z,5.08
2023-04-15T00:13:44.440Z,5.07
2023-04-15T00:16:13.408Z,5.04
2023-04-15T00:18:42.198Z,5.00
2023-04-15T00:21:10.983Z,4.97
2023-04-15T00:23:39.736Z,4.96
2023-04-15T00:26:08.575Z,4.94
2023-04-15T00:28:37.358Z,4.93
2023-04-15T00:31:06.458Z,4.90
2023-04-15T00:33:36.712Z,4.87
2023-04-15T00:36:08.562Z,4.85
2023-04-15T00:38:37.515Z,4.80
2023-04-15T00:41:06.416Z,4.77
2023-04-15T00:43:35.163Z,4.75
2023-04-15T00:46:05.740Z,4.71
2023-04-15T00:48:34.599Z,4.72
2023-04-15T00:51:03.364Z,4.72
2023-04-15T00:53:32.084Z,4.72
2023-04-15T00:56:00.807Z,4.71
2023-04-15T00:58:29.553Z,4.71
2023-04-15T01:00:58.872Z,4.70
2023-04-15T01:03:27.899Z,4.67
2023-04-15T01:05:58.247Z,4.66
2023-04-15T01:08:28.729Z,4.65
2023-04-15T01:10:57.956Z,4.67
2023-04-15T01:13:27.345Z,4.68
2023-04-15T01:15:56.249Z,4.65
2023-04-15T01:18:25.124Z,4.62
2023-04-15T01:20:53.849Z,4.57
2023-04-15T01:23:25.023Z,4.52
2023-04-15T01:25:53.747Z,4.48
2023-04-15T01:28:23.641Z,4.46
2023-04-15T01:30:52.376Z,4.43
2023-04-15T01:33:21.320Z,4.40
2023-04-15T01:35:50.096Z,4.36
2023-04-15T01:38:18.993Z,4.34
2023-04-15T01:40:48.093Z,4.31
2023-04-15T01:43:16.993Z,4.29
2023-04-15T01:45:45.831Z,4.27
2023-04-15T01:48:14.652Z,4.24
2023-04-15T01:50:43.615Z,4.21
2023-04-15T01:53:12.421Z,4.21
2023-04-15T01:55:43.084Z,4.20
2023-04-15T01:58:12.245Z,4.16
2023-04-15T02:00:41.212Z,4.12
2023-04-15T02:03:10.193Z,4.07
2023-04-15T02:05:39.024Z,4.04
2023-04-15T02:08:07.882Z,4.01
2023-04-15T02:10:39.732Z,3.99
2023-04-15T02:13:09.389Z,3.97
2023-04-15T02:15:38.309Z,3.99
2023-04-15T02:18:07.986Z,3.97
2023-04-15T02:20:38.139Z,3.95
2023-04-15T02:23:08.548Z,3.91
2023-04-15T02:25:37.442Z,3.86
2023-04-15T02:28:07.472Z,3.83
2023-04-15T02:30:36.225Z,3.80
2023-04-15T02:33:05.202Z,3.76
2023-04-15T02:35:34.447Z,3.71
2023-04-15T02:38:03.580Z,3.72
2023-04-15T02:40:32.360Z,3.72
2023-04-15T02:43:01.431Z,3.71
2023-04-15T02:45:30.776Z,3.72
2023-04-15T02:48:06.057Z,3.76
2023-04-15T02:50:35.170Z,3.79
2023-04-15T02:53:04.409Z,3.83
2023-04-15T02:55:33.278Z,3.86
2023-04-15T02:58:02.670Z,3.89
2023-04-15T03:00:31.664Z,3.90
2023-04-15T03:03:04.244Z,3.93
2023-04-15T03:05:33.752Z,3.95
2023-04-15T03:08:03.184Z,3.97
2023-04-15T03:10:32.318Z,3.98
2023-04-15T03:13:03.593Z,3.99
2023-04-15T03:15:33.558Z,4.00
2023-04-15T03:18:03.229Z,4.00
2023-04-15T03:20:32.396Z,4.02
2023-04-15T03:23:01.275Z,4.02
2023-04-15T03:25:30.511Z,4.03
2023-04-15T03:27:59.238Z,4.04
2023-04-15T03:30:28.749Z,4.06
2023-04-15T03:32:57.490Z,4.08
2023-04-15T03:35:26.453Z,4.10
2023-04-15T03:37:58.407Z,4.12
2023-04-15T03:40:27.180Z,4.13
2023-04-15T03:42:55.882Z,4.16
2023-04-15T03:45:24.809Z,4.18
2023-04-15T03:47:53.622Z,4.18
2023-04-15T03:50:22.646Z,4.18
2023-04-15T03:52:51.644Z,4.23
2023-04-15T03:55:20.617Z,4.20
2023-04-15T03:57:49.337Z,4.33
2023-04-15T04:00:18.816Z,4.37
2023-04-15T04:02:47.736Z,4.40
2023-04-15T04:05:16.673Z,4.44
2023-04-15T04:07:45.500Z,4.44
2023-04-15T04:10:14.303Z,4.45
2023-04-15T04:12:42.997Z,4.45
2023-04-15T04:15:12.705Z,4.45
2023-04-15T04:17:42.246Z,4.44
2023-04-15T04:20:11.627Z,4.44
2023-04-15T04:22:40.920Z,4.43
2023-04-15T04:25:11.060Z,4.42
2023-04-15T04:27:39.801Z,4.42
2023-04-15T04:30:09.678Z,4.43
2023-04-15T04:32:38.381Z,4.43
2023-04-15T04:35:07.350Z,4.46
2023-04-15T04:37:36.090Z,4.51
2023-04-15T04:40:05.554Z,4.55
2023-04-15T04:42:34.323Z,4.58
2023-04-15T04:45:03.142Z,4.63
2023-04-15T04:47:32.064Z,4.67
2023-04-15T04:50:00.853Z,4.69
2023-04-15T04:52:29.596Z,4.72
2023-04-15T04:54:58.352Z,4.73
2023-04-15T04:57:27.101Z,4.74
2023-04-15T04:59:55.855Z,4.76
2023-04-15T05:02:27.126Z,4.76
2023-04-15T05:04:56.095Z,4.80
2023-04-15T05:07:24.828Z,4.87
2023-04-15T05:09:53.544Z,4.96
2023-04-15T05:12:22.319Z,5.05
2023-04-15T05:14:51.282Z,5.16
2023-04-15T05:17:20.253Z,5.25
2023-04-15T05:19:48.952Z,5.35
2023-04-15T05:22:17.691Z,5.43
2023-04-15T05:24:46.819Z,5.53
2023-04-15T05:27:15.892Z,5.62
2023-04-15T05:29:44.606Z,5.70
2023-04-15T05:32:13.330Z,5.79
2023-04-15T05:34:42.030Z,5.87
2023-04-15T05:37:10.886Z,5.96
2023-04-15T05:39:39.665Z,6.03
2023-04-15T05:42:08.446Z,6.10
2023-04-15T05:44:37.203Z,6.17
2023-04-15T05:47:07.172Z,6.24
2023-04-15T05:49:36.070Z,6.34
2023-04-15T05:52:04.996Z,6.43
2023-04-15T05:54:33.767Z,6.54
2023-04-15T05:57:02.820Z,6.63
2023-04-15T05:59:31.628Z,6.73
2023-04-15T06:02:00.421Z,6.85
2023-04-15T06:04:29.714Z,6.94
2023-04-15T06:06:58.561Z,7.03
2023-04-15T06:09:27.392Z,7.07
2023-04-15T06:11:56.126Z,7.02
2023-04-15T06:14:24.901Z,7.04
2023-04-15T06:16:53.594Z,7.03
2023-04-15T06:19:22.739Z,6.99
2023-04-15T06:21:51.524Z,6.96
2023-04-15T06:24:20.328Z,7.09
2023-04-15T06:26:49.099Z,7.21
2023-04-15T06:29:17.877Z,7.25
2023-04-15T06:31:46.975Z,7.29
2023-04-15T06:34:15.769Z,7.28
2023-04-15T06:36:44.916Z,7.29
2023-04-15T06:39:13.675Z,7.36
2023-04-15T06:41:42.404Z,7.54
2023-04-15T06:44:11.336Z,7.82
2023-04-15T06:46:40.034Z,8.08
2023-04-15T06:49:08.910Z,8.42
2023-04-15T06:51:37.821Z,8.86
2023-04-15T06:54:06.707Z,9.33
2023-04-15T06:56:35.774Z,9.73
2023-04-15T06:59:04.609Z,9.98
2023-04-15T07:01:33.435Z,10.32
2023-04-15T07:04:02.275Z,10.58
2023-04-15T07:06:31.110Z,10.61
2023-04-15T07:09:00.034Z,10.69
2023-04-15T07:11:29.175Z,10.95
2023-04-15T07:13:58.575Z,11.31
2023-04-15T07:16:29.769Z,11.79
2023-04-15T07:18:58.820Z,12.26
2023-04-15T07:21:28.092Z,12.66
2023-04-15T07:23:58.717Z,12.96
2023-04-15T07:26:27.504Z,13.26
2023-04-15T07:28:56.750Z,13.59
2023-04-15T07:31:25.685Z,13.96
2023-04-15T07:33:54.578Z,14.30
2023-04-15T07:36:23.321Z,14.58
2023-04-15T07:38:52.040Z,14.80
2023-04-15T07:41:21.021Z,15.01
2023-04-15T07:43:50.570Z,15.15
2023-04-15T07:46:19.333Z,14.77
2023-04-15T07:48:48.040Z,14.24
2023-04-15T07:51:17.688Z,13.74
2023-04-15T07:53:46.460Z,13.30
2023-04-15T07:56:15.289Z,12.97
2023-04-15T07:58:44.238Z,12.73
2023-04-15T08:01:13.177Z,12.55
2023-04-15T08:03:42.173Z,12.43
2023-04-15T08:06:11.314Z,12.36
2023-04-15T08:08:40.035Z,12.37
2023-04-15T08:11:08.777Z,12.36
2023-04-15T08:13:37.897Z,12.42
2023-04-15T08:16:17.656Z,12.56
2023-04-15T08:18:46.635Z,12.81
2023-04-15T08:21:15.718Z,12.96
2023-04-15T08:23:44.520Z,13.07
2023-04-15T08:26:13.401Z,13.04
2023-04-15T08:28:42.419Z,12.86
2023-04-15T08:31:11.196Z,12.64
2023-04-15T08:33:40.083Z,12.30
2023-04-15T08:36:12.181Z,12.03
2023-04-15T08:38:41.912Z,11.87
2023-04-15T08:41:11.954Z,11.84
2023-04-15T08:43:41.580Z,11.89
2023-04-15T08:46:10.586Z,11.92
2023-04-15T08:48:40.409Z,11.96
2023-04-15T08:51:09.436Z,11.85
2023-04-15T08:53:38.388Z,11.82
2023-04-15T08:56:07.768Z,11.84
2023-04-15T08:58:36.558Z,11.96
2023-04-15T09:01:05.340Z,12.13
2023-04-15T09:03:34.446Z,12.19
2023-04-15T09:06:03.347Z,12.28
2023-04-15T09:08:32.258Z,12.47
2023-04-15T09:11:01.254Z,12.54
2023-04-15T09:13:30.082Z,12.73
2023-04-15T09:15:59.355Z,12.93
2023-04-15T09:18:31.482Z,13.07
2023-04-15T09:21:06.855Z,13.23
2023-04-15T09:23:36.177Z,13.39
2023-04-15T09:26:05.776Z,13.57
2023-04-15T09:28:36.016Z,13.76
2023-04-15T09:31:04.867Z,13.83
2023-04-15T09:33:33.669Z,13.84
2023-04-15T09:36:03.565Z,13.84
2023-04-15T09:38:32.620Z,13.87
2023-04-15T09:41:01.415Z,13.89
2023-04-15T09:43:40.016Z,13.77
2023-04-15T09:46:08.992Z,13.60
2023-04-15T09:48:37.953Z,13.36
2023-04-15T09:51:06.759Z,13.20
2023-04-15T09:53:36.062Z,13.00
2023-04-15T09:56:07.767Z,12.87
2023-04-15T09:58:38.727Z,12.69
2023-04-15T10:01:09.136Z,12.50
2023-04-15T10:03:38.500Z,12.36
2023-04-15T10:06:07.329Z,12.32
2023-04-15T10:08:36.122Z,12.25
2023-04-15T10:11:04.901Z,12.22
2023-04-15T10:13:36.074Z,12.19
2023-04-15T10:16:06.604Z,12.11
2023-04-15T10:18:36.505Z,11.91
2023-04-15T10:21:05.830Z,11.84
2023-04-15T10:23:35.552Z,11.74
2023-04-15T10:26:04.297Z,11.70
2023-04-15T10:28:33.220Z,11.72
2023-04-15T10:31:02.322Z,11.67
2023-04-15T10:33:31.074Z,11.68
2023-04-15T10:35:59.801Z,11.68
2023-04-15T10:38:34.890Z,11.64
2023-04-15T10:41:15.459Z,11.70
2023-04-15T10:43:49.000Z,11.83
2023-04-15T10:46:19.494Z,11.96
2023-04-15T10:48:52.360Z,12.06
2023-04-15T10:51:29.381Z,12.13
2023-04-15T10:54:01.495Z,12.22
2023-04-15T10:56:31.646Z,12.35
2023-04-15T10:59:02.317Z,12.50
2023-04-15T11:01:44.656Z,12.59
2023-04-15T11:04:13.671Z,12.80
2023-04-15T11:06:46.193Z,12.96
2023-04-15T11:09:32.052Z,12.99
2023-04-15T11:12:07.464Z,13.00
2023-04-15T11:14:38.129Z,12.96
2023-04-15T11:17:06.918Z,12.83
2023-04-15T11:19:39.732Z,12.79
2023-04-15T11:22:09.223Z,12.86
2023-04-15T11:24:38.347Z,12.93
2023-04-15T11:27:07.121Z,13.04
2023-04-15T11:29:36.478Z,13.17
2023-04-15T11:32:09.927Z,13.26
2023-04-15T11:34:38.767Z,13.26
2023-04-15T11:37:08.147Z,13.15
2023-04-15T11:39:36.985Z,12.84
2023-04-15T11:42:13.737Z,12.46
2023-04-15T11:44:42.712Z,12.16
2023-04-15T11:47:24.108Z,11.84
2023-04-15T11:49:53.017Z,11.56
2023-04-15T11:52:21.861Z,11.37
2023-04-15T11:54:50.586Z,11.20
2023-04-15T11:57:19.359Z,11.08
2023-04-15T11:59:48.513Z,10.90
2023-04-15T12:02:17.331Z,10.69
2023-04-15T12:04:46.819Z,10.46
2023-04-15T12:07:15.577Z,10.26
2023-04-15T12:09:44.434Z,10.08
2023-04-15T12:12:13.251Z,9.96
2023-04-15T12:14:42.295Z,9.89
2023-04-15T12:17:11.553Z,9.82
2023-04-15T12:19:43.144Z,9.78
2023-04-15T12:22:12.823Z,9.85
2023-04-15T12:24:44.007Z,9.93
2023-04-15T12:27:13.285Z,10.00
2023-04-15T12:29:43.037Z,10.02
2023-04-15T12:32:12.499Z,10.06
2023-04-15T12:34:41.935Z,10.08
2023-04-15T12:37:12.084Z,10.09
2023-04-15T12:39:41.632Z,10.11
2023-04-15T12:42:10.914Z,10.10
2023-04-15T12:44:39.977Z,10.10
2023-04-15T12:47:09.287Z,10.08
2023-04-15T12:49:38.186Z,9.94
2023-04-15T12:52:07.283Z,9.79
2023-04-15T12:54:36.684Z,9.57
2023-04-15T12:57:07.469Z,9.39
2023-04-15T12:59:37.634Z,9.28
2023-04-15T13:02:06.685Z,9.19
2023-04-15T13:04:35.879Z,9.07
2023-04-15T13:07:05.184Z,8.94
2023-04-15T13:09:34.191Z,8.80
2023-04-15T13:12:08.887Z,8.63
2023-04-15T13:14:38.001Z,8.48
2023-04-15T13:17:10.356Z,8.44
2023-04-15T13:19:39.645Z,8.43
2023-04-15T13:22:08.912Z,8.38
2023-04-15T13:24:42.090Z,8.34
2023-04-15T13:27:11.185Z,8.31
2023-04-15T13:29:40.385Z,8.30
2023-04-15T13:32:09.363Z,8.27
2023-04-15T13:34:38.754Z,8.27
2023-04-15T13:37:10.899Z,8.27
2023-04-15T13:39:40.128Z,8.24
2023-04-15T13:42:09.351Z,8.19
2023-04-15T13:44:38.818Z,8.13
2023-04-15T13:47:07.967Z,8.12
2023-04-15T13:49:37.569Z,8.11
2023-04-15T13:52:06.764Z,8.12
2023-04-15T13:54:37.908Z,8.12
2023-04-15T13:57:07.991Z,8.14
2023-04-15T13:59:36.889Z,8.16
2023-04-15T14:02:06.189Z,8.16
2023-04-15T14:04:36.144Z,8.14
2023-04-15T14:07:05.484Z,8.11
2023-04-15T14:09:35.420Z,8.09
2023-04-15T14:12:05.225Z,8.07
2023-04-15T14:14:34.226Z,8.08
2023-04-15T14:17:04.758Z,8.09
2023-04-15T14:19:33.989Z,8.08
2023-04-15T14:22:03.974Z,8.07
2023-04-15T14:24:33.136Z,8.05
2023-04-15T14:27:02.183Z,8.04
2023-04-15T14:29:31.057Z,8.03
2023-04-15T14:32:04.313Z,8.04
2023-04-15T14:34:41.965Z,8.02
2023-04-15T14:37:11.458Z,8.02
2023-04-15T14:39:40.684Z,8.09
2023-04-15T14:42:09.697Z,8.07
2023-04-15T14:44:38.982Z,8.02
2023-04-15T14:47:07.909Z,7.95
2023-04-15T14:49:36.684Z,7.86
2023-04-15T14:52:05.508Z,7.83
2023-04-15T14:54:34.381Z,7.78
2023-04-15T14:57:03.204Z,7.72
2023-04-15T14:59:31.975Z,7.65
2023-04-15T15:02:01.119Z,7.62
2023-04-15T15:04:30.514Z,7.60
2023-04-15T15:06:59.517Z,7.57
2023-04-15T15:09:28.969Z,7.54
2023-04-15T15:11:57.886Z,7.53
2023-04-15T15:14:27.124Z,7.52
2023-04-15T15:16:56.016Z,7.51
2023-04-15T15:19:25.069Z,7.53
2023-04-15T15:21:53.975Z,7.56
2023-04-15T15:24:22.813Z,7.54
2023-04-15T15:26:51.545Z,7.47
2023-04-15T15:29:20.339Z,7.50
2023-04-15T15:31:49.480Z,7.43
2023-04-15T15:34:18.434Z,7.36
2023-04-15T15:36:47.434Z,7.30
2023-04-15T15:39:16.364Z,7.24
2023-04-15T15:41:45.727Z,7.18
2023-04-15T15:44:14.634Z,7.12
2023-04-15T15:46:43.502Z,7.08
2023-04-15T15:49:12.385Z,7.10
2023-04-15T15:51:41.226Z,7.08
2023-04-15T15:54:10.453Z,7.12
2023-04-15T15:56:39.578Z,7.10
2023-04-15T15:59:08.637Z,7.08
2023-04-15T16:01:37.549Z,7.07
2023-04-15T16:04:07.009Z,7.08
2023-04-15T16:06:36.333Z,7.10
2023-04-15T16:09:05.440Z,7.11
2023-04-15T16:11:34.404Z,7.11
2023-04-15T16:14:03.202Z,7.10
2023-04-15T16:16:31.987Z,7.08
2023-04-15T16:19:00.803Z,7.06
2023-04-15T16:21:29.715Z,7.05
2023-04-15T16:23:58.531Z,7.06
2023-04-15T16:26:27.437Z,7.05
2023-04-15T16:28:56.433Z,7.03
2023-04-15T16:31:25.436Z,7.01
2023-04-15T16:33:54.203Z,6.99
2023-04-15T16:36:23.004Z,7.00
2023-04-15T16:38:52.467Z,7.02
2023-04-15T16:41:21.271Z,7.03
2023-04-15T16:43:50.072Z,7.03
2023-04-15T16:46:18.935Z,7.01
2023-04-15T16:48:47.802Z,7.01
2023-04-15T16:51:16.687Z,6.99
2023-04-15T16:53:45.509Z,6.98
2023-04-15T16:56:14.505Z,6.95
2023-04-15T16:58:45.578Z,7.00
2023-04-15T17:01:14.588Z,7.02
2023-04-15T17:03:43.673Z,7.02
2023-04-15T17:06:12.690Z,7.03
2023-04-15T17:08:41.438Z,7.01
2023-04-15T17:11:10.221Z,7.03
2023-04-15T17:13:39.100Z,7.05
2023-04-15T17:16:08.883Z,7.02
2023-04-15T17:18:39.620Z,7.07
2023-04-15T17:21:08.391Z,7.07
2023-04-15T17:23:37.348Z,7.05
2023-04-15T17:26:06.243Z,7.04
2023-04-15T17:28:35.143Z,7.03
2023-04-15T17:31:04.461Z,7.04
2023-04-15T17:34:00.425Z,7.05
2023-04-15T17:36:22.485Z,7.05
2023-04-15T17:38:51.426Z,7.04
2023-04-15T17:41:20.321Z,7.02
2023-04-15T17:43:49.117Z,7.00
2023-04-15T17:46:19.385Z,6.98
2023-04-15T17:48:49.381Z,6.98
2023-04-15T17:51:18.205Z,6.97
2023-04-15T17:53:47.489Z,6.95
2023-04-15T17:56:16.785Z,6.91
2023-04-15T17:58:45.666Z,6.88
2023-04-15T18:01:14.694Z,6.85
2023-04-15T18:03:43.722Z,6.83
2023-04-15T18:06:12.936Z,6.81
2023-04-15T18:08:41.722Z,6.79
2023-04-15T18:11:12.274Z,6.78
2023-04-15T18:13:42.642Z,6.76
2023-04-15T18:16:12.583Z,6.72
2023-04-15T18:18:41.537Z,6.69
2023-04-15T18:21:12.987Z,6.66
2023-04-15T18:23:43.167Z,6.64
2023-04-15T18:26:11.994Z,6.64
2023-04-15T18:28:41.475Z,6.65
2023-04-15T18:31:10.302Z,6.66
2023-04-15T18:33:39.975Z,6.66
2023-04-15T18:36:08.967Z,6.66
2023-04-15T18:38:38.079Z,6.66
2023-04-15T18:41:08.817Z,6.66
2023-04-15T18:43:38.744Z,6.67
2023-04-15T18:46:10.177Z,6.70
2023-04-15T18:48:39.561Z,6.73
2023-04-15T18:51:08.316Z,6.73
2023-04-15T18:53:37.251Z,6.73
2023-04-15T18:56:06.531Z,6.71
2023-04-15T18:59:09.533Z,6.67
2023-04-15T19:01:24.870Z,6.73
2023-04-15T19:03:54.195Z,6.73
2023-04-15T19:06:23.248Z,6.74
2023-04-15T19:08:53.176Z,6.73
2023-04-15T19:11:22.074Z,6.72
2023-04-15T19:13:52.718Z,6.66
2023-04-15T19:16:21.865Z,6.74
2023-04-15T19:18:50.708Z,6.77
2023-04-15T19:21:19.657Z,6.80
2023-04-15T19:23:48.526Z,6.78
2023-04-15T19:26:17.434Z,6.82
2023-04-15T19:28:46.258Z,6.81
2023-04-15T19:31:15.201Z,6.77
2023-04-15T19:33:44.579Z,6.83
2023-04-15T19:36:13.695Z,6.85
2023-04-15T19:38:42.435Z,6.82
2023-04-15T19:41:11.318Z,6.86
2023-04-15T19:43:40.095Z,6.85
2023-04-15T19:46:09.303Z,6.83
2023-04-15T19:48:38.603Z,6.79
2023-04-15T19:51:07.864Z,6.76
2023-04-15T19:53:36.891Z,6.74
2023-04-15T19:56:06.296Z,6.73
2023-04-15T19:58:35.296Z,6.74
2023-04-15T20:01:04.303Z,6.76
2023-04-15T20:03:33.268Z,6.76
2023-04-15T20:06:02.233Z,6.76
2023-04-15T20:08:31.148Z,6.76
2023-04-15T20:11:01.184Z,6.75
2023-04-15T20:13:30.078Z,6.75
2023-04-15T20:16:13.076Z,6.74
2023-04-15T20:18:42.060Z,6.76
2023-04-15T20:21:10.936Z,6.78
2023-04-15T20:23:43.153Z,6.81
2023-04-15T20:26:12.199Z,6.83
2023-04-15T20:28:41.270Z,6.85
2023-04-15T20:31:10.687Z,6.85
2023-04-15T20:33:42.091Z,6.85
2023-04-15T20:36:10.973Z,6.86
2023-04-15T20:38:40.019Z,6.88
2023-04-15T20:41:08.863Z,6.90
2023-04-15T20:43:37.770Z,6.91
2023-04-15T20:46:19.845Z,6.86
2023-04-15T20:48:50.341Z,6.89
2023-04-15T20:51:19.094Z,6.88
2023-04-15T20:53:47.872Z,6.87
2023-04-15T20:56:16.983Z,6.88
2023-04-15T20:58:46.830Z,6.90
2023-04-15T21:01:16.596Z,6.92
2023-04-15T21:03:45.975Z,6.93
2023-04-15T21:06:15.051Z,6.92
2023-04-15T21:08:44.297Z,6.91
2023-04-15T21:11:18.870Z,6.89
2023-04-15T21:13:57.961Z,6.87
2023-04-15T21:16:27.713Z,6.85
2023-04-15T21:18:56.827Z,6.84
2023-04-15T21:21:26.813Z,6.79
2023-04-15T21:23:55.636Z,6.81
2023-04-15T21:26:24.447Z,6.77
2023-04-15T21:28:53.353Z,6.71
2023-04-15T21:31:22.492Z,6.66
2023-04-15T21:33:51.705Z,6.61
2023-04-15T21:36:20.535Z,6.56
2023-04-15T21:38:49.782Z,6.53
2023-04-15T21:41:21.229Z,6.51
2023-04-15T21:43:51.219Z,6.51
2023-04-15T21:46:24.523Z,6.51
2023-04-15T21:48:55.031Z,6.49
2023-04-15T21:51:24.159Z,6.47
2023-04-15T21:53:54.583Z,6.45
2023-04-15T21:56:24.720Z,6.42
2023-04-15T21:58:55.161Z,6.39
2023-04-15T22:01:24.123Z,6.40
2023-04-15T22:03:53.507Z,6.40
2023-04-15T22:06:27.371Z,6.31
2023-04-15T22:08:57.810Z,6.41
2023-04-15T22:11:28.363Z,6.39
2023-04-15T22:13:57.876Z,6.37
2023-04-15T22:16:27.177Z,6.34
2023-04-15T22:18:56.586Z,6.33
2023-04-15T22:21:25.527Z,6.34
2023-04-15T22:24:38.043Z,6.35
2023-04-15T22:26:44.131Z,6.37
2023-04-15T22:29:13.099Z,6.38
2023-04-15T22:31:42.475Z,6.38
2023-04-15T22:34:11.586Z,6.38
2023-04-15T22:36:40.706Z,6.39
2023-04-15T22:39:09.590Z,6.38
2023-04-15T22:41:38.338Z,6.40
2023-04-15T22:44:07.154Z,6.43
2023-04-15T22:46:36.163Z,6.46
2023-04-15T22:49:06.560Z,6.50
2023-04-15T22:51:36.893Z,6.53
2023-04-15T22:54:05.606Z,6.56
2023-04-15T22:56:34.359Z,6.57
2023-04-15T22:59:03.292Z,6.61
2023-04-15T23:01:32.380Z,6.67
2023-04-15T23:04:10.435Z,6.73
2023-04-15T23:06:50.787Z,6.77
2023-04-15T23:09:19.642Z,6.80
2023-04-15T23:11:48.446Z,6.80
2023-04-15T23:14:17.188Z,6.79
2023-04-15T23:16:46.733Z,6.79
2023-04-15T23:19:15.865Z,6.80
2023-04-15T23:21:44.633Z,6.81
2023-04-15T23:24:13.721Z,6.82
2023-04-15T23:26:43.291Z,6.81
2023-04-15T23:29:12.162Z,6.79
2023-04-15T23:31:41.785Z,6.80
2023-04-15T23:34:10.900Z,6.81
2023-04-15T23:36:39.650Z,6.82
2023-04-15T23:39:08.715Z,6.76
2023-04-15T23:41:37.879Z,6.81
2023-04-15T23:44:07.179Z,6.81
2023-04-15T23:46:36.667Z,6.81
2023-04-15T23:49:05.712Z,6.80
2023-04-15T23:51:34.470Z,6.80
2023-04-15T23:54:03.716Z,6.82
2023-04-15T23:56:32.765Z,6.82
2023-04-15T23:59:01.571Z,6.82
